Nearby METAR Reports

 

KSNK - Snyder/Winston, Texas, USA
Distance from station: SSE 25mi, 41km
Updated: Mon, 18-Oct-2021 12:15pm CDT
Clear
Clear
 Wind from S
Wind: S 9 mph , 15 km/h, Gust: 18 mph , 30 km/h
Temperature: 68°F , 20°C
Dew Point: 41°F , 5°C
Humidity: 38%
Barometer: 30.08 inHg , 1018.6 hPa
Clouds: Clear
Visibility: 10 miles , 16 km
2021/10/18 17:15 KSNK 181715Z AUTO 17008G16KT 10SM CLR 20/05 A3008 RMK AO2 T01950048
KSWW - Sweetwater, Texas, USA
Distance from station: SE 56mi, 90km
Updated: Mon, 18-Oct-2021 12:15pm CDT
Clear
Clear
 Wind from SSE
Wind: SSE 14 mph , 22 km/h
Temperature: 70°F , 21°C
Dew Point: 41°F , 5°C
Humidity: 35%
Barometer: 30.11 inHg , 1019.6 hPa
Clouds: Clear
Visibility: 10 miles , 16 km
2021/10/18 17:15 KSWW 181715Z AUTO 16012KT 10SM CLR 21/05 A3011 RMK AO2 T02110047
 
KLBB - Lubbock, Texas, USA
Distance from station: NW 59mi, 94km
Updated: Mon, 18-Oct-2021 11:53am CDT
Mostly cloudy
Mostly cloudy
 Wind from SSW
Wind: SSW 10 mph , 17 km/h
Temperature: 66°F , 19°C
Dew Point: 36°F , 2°C
Humidity: 32%
Barometer: 30.05 inHg , 1017.6 hPa
Clouds: Mostly cloudy
Visibility: 10 miles , 16 km
Cloud details: Few Clouds 10000 ft
Partly cloudy 18000 ft
Mostly cloudy 25000 ft
2021/10/18 16:53 KLBB 181653Z 20009KT 10SM FEW100 SCT180 BKN250 19/02 A3005 RMK AO2 SLP144 T01940022
KPVW - Plainview, Texas, USA
Distance from station: NNW 85mi, 137km
Updated: Mon, 18-Oct-2021 12:15pm CDT
Mostly cloudy
Mostly cloudy
 Wind from SSW
Wind: SSW 9 mph , 15 km/h
Temperature: 64°F , 18°C
Dew Point: 36°F , 2°C
Humidity: 34%
Barometer: 30.05 inHg , 1017.6 hPa
Clouds: Mostly cloudy
Visibility: 10 miles , 16 km
Cloud details: Mostly cloudy 11000 ft
2021/10/18 17:15 KPVW 181715Z AUTO 20008KT 10SM BKN110 18/02 A3005 RMK AO2 T01820023 TSNO
 
KDYS - Dyess Afb/Abilen, Texas, USA
Distance from station: ESE 88mi, 141km
Updated: Mon, 18-Oct-2021 11:56am CDT
Clear
Clear
 Wind from SSE
Wind: SSE 18 mph , 30 km/h, Gust: 26 mph , 43 km/h
Temperature: 70°F , 21°C
Dew Point: 37°F , 3°C
Humidity: 31%
Barometer: 30.08 inHg , 1018.6 hPa
Clouds: Clear
Visibility: 10 miles , 16 km
2021/10/18 16:56 KDYS 181656Z AUTO 15016G23KT 10SM CLR 21/03 A3008 RMK AO2 SLP164 T02100032
KGNC - Seminole, Texas, USA
Distance from station: WSW 89mi, 144km
Updated: Mon, 18-Oct-2021 12:15pm CDT
Clear
Clear
 Wind from SSE
Wind: SSE 8 mph , 13 km/h
Temperature: 68°F , 20°C
Dew Point: 37°F , 3°C
Humidity: 33%
Barometer: 30.09 inHg , 1019 hPa
Clouds: Clear
Visibility: 10 miles , 16 km
2021/10/18 17:15 KGNC 181715Z AUTO 16007KT 10SM CLR 20/03 A3009 RMK AO2 T02040029
 
KE11 - Andrews, Texas, USA
Distance from station: WSW 93mi, 149km
Updated: Mon, 18-Oct-2021 11:55am CDT
Clear
Clear
 Wind from SSE
Wind: SSE 8 mph , 13 km/h
Temperature: 70°F , 21°C
Dew Point: 36°F , 2°C
Humidity: 29%
Barometer: 30.06 inHg , 1017.9 hPa
Clouds: Clear
Visibility: 7 miles , 11 km
2021/10/18 16:55 KE11 181655Z AUTO 16007KT 7SM CLR 21/02 A3006 RMK AO2 T02060021
KABI - Abilene, Texas, USA
Distance from station: ESE 96mi, 154km
Updated: Mon, 18-Oct-2021 11:52am CDT
Clear
Clear
 Wind from S
Wind: S 16 mph , 26 km/h, Gust: 26 mph , 43 km/h
Temperature: 70°F , 21°C
Dew Point: 43°F , 6°C
Humidity: 38%
Barometer: 30.11 inHg , 1019.6 hPa
Clouds: Clear
Visibility: 10 miles , 16 km
2021/10/18 16:52 KABI 181652Z 18014G23KT 10SM CLR 21/06 A3011 RMK AO2 SLP183 T02110061
 
KMAF - Midland, Texas, USA
Distance from station: SW 96mi, 154km
Updated: Mon, 18-Oct-2021 11:53am CDT
Clear
Clear
 Wind from S
Wind: S 18 mph , 30 km/h
Temperature: 70°F , 21°C
Dew Point: 39°F , 4°C
Humidity: 33%
Barometer: 30.05 inHg , 1017.6 hPa
Clouds: Clear
Visibility: 10 miles , 16 km
2021/10/18 16:53 KMAF 181653Z 17016KT 10SM CLR 21/04 A3005 RMK AO2 SLP144 T02060039 $
KCDS - Childress, Texas, USA
Distance from station: NNE 110mi, 177km
Updated: Mon, 18-Oct-2021 11:53am CDT
Clear
Clear
 Wind from S
Wind: S 16 mph , 26 km/h, Gust: 25 mph , 41 km/h
Temperature: 68°F , 20°C
Dew Point: 39°F , 4°C
Humidity: 35%
Barometer: 30.07 inHg , 1018.3 hPa
Clouds: Clear
Visibility: 10 miles , 16 km
2021/10/18 16:53 KCDS 181653Z AUTO 19014G22KT 10SM CLR 20/04 A3007 RMK AO2 RAB05E29 SLP169 P0000 T02000039
 
KSJT - San Angelo, Texas, USA
Distance from station: SSE 121mi, 194km
Updated: Mon, 18-Oct-2021 11:51am CDT
Clear
Clear
 Wind from S
Wind: S 14 mph , 22 km/h, Gust: 23 mph , 37 km/h
Temperature: 70°F , 21°C
Dew Point: 45°F , 7°C
Humidity: 40%
Barometer: 30.10 inHg , 1019.3 hPa
Clouds: Clear
Visibility: 10 miles , 16 km
2021/10/18 16:51 KSJT 181651Z 17012G20KT 10SM CLR 21/07 A3010 RMK AO2 SLP181 T02060072
KHOB - Hobbs/Lea Co., New Mexico, USA
Distance from station: WSW 122mi, 196km
Updated: Mon, 18-Oct-2021 11:50am CDT
Clear
Clear
 Wind from S
Wind: S 7 mph , 11 km/h
Temperature: 66°F , 19°C
Dew Point: 36°F , 2°C
Humidity: 32%
Barometer: 30.05 inHg , 1017.6 hPa
Clouds: Clear
Visibility: 10 miles , 16 km
2021/10/18 16:50 KHOB 181650Z 17006KT 10SM SKC 19/02 A3005
 
KCOM - Coleman Muni, Texas, USA
Distance from station: SE 131mi, 212km
Updated: Mon, 18-Oct-2021 12:15pm CDT
Clear
Clear
 Wind from S
Wind: S 12 mph , 19 km/h, Gust: 21 mph , 33 km/h
Temperature: 68°F , 20°C
Dew Point: 46°F , 8°C
Humidity: 46%
Barometer: 30.13 inHg , 1020.3 hPa
Clouds: Clear
Visibility: 10 miles , 16 km
2021/10/18 17:15 KCOM 181715Z AUTO 17010G18KT 10SM CLR 20/08 A3013 RMK AO2 T02010078
KBKD - Breckenridge, Texas, USA
Distance from station: E 134mi, 215km
Updated: Mon, 18-Oct-2021 12:15pm CDT
Clear
Clear
 Wind from S
Wind: S 13 mph , 20 km/h
Temperature: 72°F , 22°C
Dew Point: 43°F , 6°C
Humidity: 36%
Barometer: 30.12 inHg , 1020 hPa
Clouds: Clear
Visibility: 10 miles , 16 km
2021/10/18 17:15 KBKD 181715Z AUTO 17011KT 10SM CLR 22/06 A3012 RMK AO2 T02200059
 
KF05 - Vernon Wilbarger, Texas, USA
Distance from station: NE 137mi, 220km
Updated: Mon, 18-Oct-2021 12:15pm CDT
Clear
Clear
 Wind from S
Wind: S 16 mph , 26 km/h, Gust: 21 mph , 33 km/h
Temperature: 73°F , 23°C
Dew Point: 39°F , 4°C
Humidity: 29%
Barometer: 30.08 inHg , 1018.6 hPa
Clouds: Clear
Visibility: 10 miles , 16 km
2021/10/18 17:15 KF05 181715Z AUTO 17014G18KT 10SM CLR 23/04 A3008 RMK AO2 T02320041